createdAt,value
2018-06-02T00:02:41.175Z,56.30
2018-06-02T00:07:32.082Z,56.50
2018-06-02T00:12:23.000Z,56.00
2018-06-02T00:17:13.890Z,55.80
2018-06-02T00:22:04.874Z,55.60
2018-06-02T00:26:55.783Z,55.60
2018-06-02T00:31:46.686Z,55.60
2018-06-02T00:36:38.317Z,55.50
2018-06-02T00:41:29.240Z,55.40
2018-06-02T00:46:20.151Z,55.90
2018-06-02T00:51:11.059Z,55.60
2018-06-02T00:56:02.000Z,55.30
2018-06-02T01:00:52.893Z,55.30
2018-06-02T01:05:43.779Z,55.20
2018-06-02T01:10:35.402Z,55.30
2018-06-02T01:15:26.293Z,55.10
2018-06-02T01:20:18.052Z,55.20
2018-06-02T01:25:09.693Z,55.10
2018-06-02T01:30:00.676Z,55.00
2018-06-02T01:34:51.612Z,54.90
2018-06-02T01:39:42.509Z,54.90
2018-06-02T01:44:33.432Z,54.80
2018-06-02T01:49:24.328Z,54.60
2018-06-02T01:54:15.237Z,54.90
2018-06-02T01:59:06.142Z,54.80
2018-06-02T02:03:57.822Z,55.50
2018-06-02T02:08:49.563Z,55.60
2018-06-02T02:13:40.459Z,55.60
2018-06-02T02:18:31.399Z,55.80
2018-06-02T02:23:22.320Z,56.40
2018-06-02T02:28:13.212Z,56.00
2018-06-02T02:33:04.156Z,55.60
2018-06-02T02:37:55.074Z,55.50
2018-06-02T02:42:45.977Z,55.60
2018-06-02T02:47:36.872Z,55.40
2018-06-02T02:52:27.760Z,55.40
2018-06-02T02:57:19.405Z,55.60
2018-06-02T03:02:11.049Z,56.10
2018-06-02T03:07:01.992Z,56.70
2018-06-02T03:11:52.913Z,56.50
2018-06-02T03:16:43.848Z,56.60
2018-06-02T03:21:34.740Z,56.70
2018-06-02T03:26:25.687Z,57.30
2018-06-02T03:31:16.573Z,57.10
2018-06-02T03:36:07.524Z,56.60
2018-06-02T03:40:58.449Z,56.60
2018-06-02T03:45:49.344Z,56.40
2018-06-02T03:50:40.289Z,56.10
2018-06-02T03:55:31.176Z,56.00
2018-06-02T04:00:22.081Z,55.90
2018-06-02T04:05:12.988Z,55.90
2018-06-02T04:10:03.975Z,55.80
2018-06-02T04:14:54.971Z,55.70
2018-06-02T04:19:45.861Z,56.40
2018-06-02T04:24:36.766Z,55.80
2018-06-02T04:29:27.659Z,56.10
2018-06-02T04:34:18.648Z,56.30
2018-06-02T04:39:09.535Z,56.40
2018-06-02T04:44:00.433Z,57.00
2018-06-02T04:48:52.136Z,56.80
2018-06-02T04:53:43.020Z,56.80
2018-06-02T04:58:33.918Z,56.60
2018-06-02T05:03:24.884Z,56.70
2018-06-02T05:08:15.779Z,56.60
2018-06-02T05:13:06.677Z,56.60
2018-06-02T05:17:57.567Z,56.70
2018-06-02T05:22:49.265Z,56.70
2018-06-02T05:27:40.172Z,57.20
2018-06-02T05:32:31.072Z,57.50
2018-06-02T05:37:22.025Z,57.30
2018-06-02T05:42:12.908Z,57.70
2018-06-02T05:47:03.866Z,57.70
2018-06-02T05:51:54.760Z,57.70
2018-06-02T05:56:45.649Z,58.10
2018-06-02T06:01:37.284Z,57.70
2018-06-02T06:06:28.924Z,57.60
2018-06-02T06:11:19.886Z,57.60
2018-06-02T06:16:10.793Z,57.80
2018-06-02T06:21:01.693Z,57.90
2018-06-02T06:25:52.644Z,58.20
2018-06-02T06:30:43.541Z,58.40
2018-06-02T06:35:34.432Z,58.50
2018-06-02T06:40:26.064Z,58.40
2018-06-02T06:45:17.696Z,58.40
2018-06-02T06:50:09.337Z,58.30
2018-06-02T06:55:00.252Z,58.30
2018-06-02T06:59:51.884Z,58.30
2018-06-02T07:04:43.556Z,58.40
2018-06-02T07:09:34.439Z,58.20
2018-06-02T07:14:26.072Z,58.30
2018-06-02T07:19:17.940Z,58.30
2018-06-02T07:24:08.831Z,58.10
2018-06-02T07:29:00.527Z,58.30
2018-06-02T07:33:51.425Z,58.20
2018-06-02T07:38:42.397Z,58.40
2018-06-02T07:43:33.284Z,58.60
2018-06-02T07:48:24.181Z,58.80
2018-06-02T07:53:15.067Z,58.50
2018-06-02T07:58:06.136Z,58.40
2018-06-02T08:02:57.032Z,58.40
2018-06-02T08:07:47.936Z,58.30
2018-06-02T08:12:38.893Z,58.20
2018-06-02T08:17:29.784Z,58.10
2018-06-02T08:22:20.686Z,58.00
2018-06-02T08:27:11.580Z,57.80
2018-06-02T08:32:03.234Z,57.40
2018-06-02T08:36:54.132Z,57.40
2018-06-02T08:41:45.768Z,57.10
2018-06-02T08:46:37.493Z,57.20
2018-06-02T08:51:28.388Z,57.20
2018-06-02T08:56:19.329Z,57.20
2018-06-02T09:01:10.228Z,57.20
2018-06-02T09:06:01.173Z,57.00
2018-06-02T09:10:52.199Z,57.00
2018-06-02T09:15:43.836Z,56.90
2018-06-02T09:20:35.509Z,56.70
2018-06-02T09:25:26.454Z,56.70
2018-06-02T09:30:17.373Z,56.60
2018-06-02T09:35:08.281Z,56.60
2018-06-02T09:39:59.170Z,56.70
2018-06-02T09:44:50.129Z,56.60
2018-06-02T09:49:41.057Z,56.40
2018-06-02T09:54:31.965Z,56.40
2018-06-02T09:59:22.863Z,56.50
2018-06-02T10:04:13.806Z,56.50
2018-06-02T10:09:04.707Z,56.30
2018-06-02T10:13:55.596Z,56.40
2018-06-02T10:18:46.558Z,56.20
2018-06-02T10:23:37.489Z,56.20
2018-06-02T10:28:28.417Z,56.10
2018-06-02T10:33:19.313Z,56.00
2018-06-02T10:38:10.217Z,56.00
2018-06-02T10:43:01.158Z,55.90
2018-06-02T10:47:52.151Z,55.80
2018-06-02T10:52:43.140Z,55.80
2018-06-02T10:57:34.786Z,55.80
2018-06-02T11:02:26.520Z,55.80
2018-06-02T11:07:17.619Z,55.70
2018-06-02T11:12:08.508Z,55.70
2018-06-02T11:16:59.456Z,55.60
2018-06-02T11:21:50.385Z,55.70
2018-06-02T11:26:42.019Z,55.70
2018-06-02T11:31:33.725Z,55.60
2018-06-02T11:36:24.624Z,55.60
2018-06-02T11:41:15.520Z,55.60
2018-06-02T11:46:06.475Z,55.60
2018-06-02T11:50:57.396Z,55.80
2018-06-02T11:55:48.380Z,55.70
2018-06-02T12:00:39.396Z,55.70
2018-06-02T12:05:30.536Z,55.60
2018-06-02T12:10:21.637Z,55.40
2018-06-02T12:15:14.288Z,55.20
2018-06-02T12:20:06.001Z,54.50
2018-06-02T12:24:56.922Z,54.50
2018-06-02T12:29:47.864Z,54.20
2018-06-02T12:34:39.507Z,53.70
2018-06-02T12:39:31.139Z,53.40
2018-06-02T12:44:22.763Z,53.20
2018-06-02T12:49:14.404Z,53.00
2018-06-02T12:54:05.403Z,52.90
2018-06-02T12:58:56.305Z,52.70
2018-06-02T13:03:47.216Z,52.50
2018-06-02T13:08:38.115Z,52.30
2018-06-02T13:13:29.005Z,52.10
2018-06-02T13:18:20.641Z,51.60
2018-06-02T13:23:12.281Z,51.20
2018-06-02T13:28:03.216Z,51.10
2018-06-02T13:32:54.386Z,50.70
2018-06-02T13:37:45.618Z,50.30
2018-06-02T13:42:36.532Z,50.00
2018-06-02T13:47:27.442Z,49.90
2018-06-02T13:52:18.381Z,49.80
2018-06-02T13:57:09.292Z,50.00
2018-06-02T14:02:00.179Z,50.20
2018-06-02T14:06:51.114Z,50.20
2018-06-02T14:11:42.052Z,50.40
2018-06-02T14:16:32.944Z,50.60
2018-06-02T14:21:23.939Z,50.60
2018-06-02T14:26:14.877Z,50.60
2018-06-02T14:31:05.772Z,50.90
2018-06-02T14:35:57.456Z,50.90
2018-06-02T14:40:48.389Z,50.90
2018-06-02T14:45:39.285Z,51.00
2018-06-02T14:50:30.171Z,51.10
2018-06-02T14:55:21.963Z,51.10
2018-06-02T15:00:12.891Z,51.10
2018-06-02T15:05:03.913Z,51.00
2018-06-02T15:09:55.688Z,51.40
2018-06-02T15:14:47.331Z,51.60
2018-06-02T15:19:38.253Z,51.50
2018-06-02T15:24:29.208Z,51.60
2018-06-02T15:29:20.117Z,51.70
2018-06-02T15:34:11.095Z,51.60
2018-06-02T15:39:02.740Z,51.50
2018-06-02T15:43:53.712Z,51.50
2018-06-02T15:48:44.620Z,51.40
2018-06-02T15:53:35.513Z,51.50
2018-06-02T15:58:26.436Z,52.10
2018-06-02T16:03:17.337Z,51.80
2018-06-02T16:08:08.245Z,52.00
2018-06-02T16:12:59.924Z,52.30
2018-06-02T16:17:50.875Z,52.30
2018-06-02T16:22:41.778Z,52.70
2018-06-02T16:27:32.696Z,52.90
2018-06-02T16:32:23.617Z,53.20
2018-06-02T16:37:14.516Z,53.30
2018-06-02T16:42:05.420Z,53.60
2018-06-02T16:46:56.303Z,53.90
2018-06-02T16:51:47.942Z,54.30
2018-06-02T16:56:39.571Z,54.60
2018-06-02T17:01:31.265Z,54.60
2018-06-02T17:06:22.180Z,54.50
2018-06-02T17:11:13.301Z,54.70
2018-06-02T17:16:04.363Z,54.80
2018-06-02T17:20:55.305Z,54.90
2018-06-02T17:25:46.206Z,55.10
2018-06-02T17:30:37.840Z,55.30
2018-06-02T17:35:29.477Z,55.50
2018-06-02T17:40:21.103Z,55.70
2018-06-02T17:45:12.088Z,55.50
2018-06-02T17:50:02.972Z,55.50
2018-06-02T17:54:53.924Z,55.70
2018-06-02T17:59:44.850Z,55.90
2018-06-02T18:04:35.740Z,55.80
2018-06-02T18:09:26.689Z,56.10
2018-06-02T18:14:17.576Z,55.90
2018-06-02T18:19:08.588Z,56.00
2018-06-02T18:23:59.479Z,56.00
2018-06-02T18:28:51.181Z,56.50
2018-06-02T18:33:42.074Z,56.30
2018-06-02T18:38:33.017Z,56.30
2018-06-02T18:43:24.046Z,56.20
2018-06-02T18:48:14.919Z,56.90
2018-06-02T18:53:05.812Z,56.30
2018-06-02T18:57:57.453Z,56.40
2018-06-02T19:02:49.087Z,56.40
2018-06-02T19:07:40.944Z,56.30
2018-06-02T19:12:32.153Z,56.20
2018-06-02T19:17:23.889Z,57.00
2018-06-02T19:22:15.528Z,56.50
2018-06-02T19:27:06.445Z,56.40
2018-06-02T19:31:58.085Z,56.80
2018-06-02T19:36:49.060Z,56.70
2018-06-02T19:41:40.024Z,56.70
2018-06-02T19:46:31.708Z,56.80
2018-06-02T19:51:22.639Z,56.60
2018-06-02T19:56:13.549Z,57.00
2018-06-02T20:01:04.440Z,57.30
2018-06-02T20:05:56.141Z,56.80
2018-06-02T20:10:47.781Z,57.00
2018-06-02T20:15:39.480Z,57.50
2018-06-02T20:20:30.388Z,57.30
2018-06-02T20:25:21.259Z,57.40
2018-06-02T20:30:12.974Z,57.10
2018-06-02T20:35:03.992Z,57.10
2018-06-02T20:39:55.005Z,57.90
2018-06-02T20:44:46.648Z,57.60
2018-06-02T20:49:37.545Z,57.60
2018-06-02T20:54:28.455Z,57.70
2018-06-02T20:59:19.371Z,57.40
2018-06-02T21:04:10.281Z,57.50
2018-06-02T21:09:01.221Z,57.80
2018-06-02T21:13:52.136Z,57.80
2018-06-02T21:18:43.032Z,57.90
2018-06-02T21:23:33.972Z,58.00
2018-06-02T21:28:24.887Z,57.90
2018-06-02T21:33:15.780Z,57.90
2018-06-02T21:38:06.677Z,57.80
2018-06-02T21:42:58.371Z,57.70
2018-06-02T21:47:49.264Z,57.70
2018-06-02T21:52:40.196Z,58.00
2018-06-02T21:57:31.101Z,57.90
2018-06-02T22:02:22.004Z,58.10
2018-06-02T22:07:12.945Z,57.80
2018-06-02T22:12:03.873Z,58.00
2018-06-02T22:16:57.679Z,58.20
2018-06-02T22:21:48.576Z,58.70
2018-06-02T22:26:39.469Z,58.70
2018-06-02T22:31:30.372Z,58.40
2018-06-02T22:36:21.341Z,58.90
2018-06-02T22:41:12.241Z,58.80
2018-06-02T22:46:03.196Z,58.80
2018-06-02T22:50:54.093Z,58.60
2018-06-02T22:55:44.999Z,58.50
2018-06-02T23:00:35.920Z,58.70
2018-06-02T23:05:26.840Z,59.00
2018-06-02T23:10:17.752Z,58.90
2018-06-02T23:15:08.684Z,58.50
2018-06-02T23:19:59.600Z,58.40
2018-06-02T23:24:50.500Z,58.60
2018-06-02T23:29:41.437Z,58.80
2018-06-02T23:34:32.348Z,58.90
2018-06-02T23:39:23.233Z,58.60
2018-06-02T23:44:14.119Z,58.70
2018-06-02T23:49:05.016Z,58.50
2018-06-02T23:53:55.916Z,58.80
2018-06-02T23:58:46.844Z,58.70
